createdAt,value
2017-04-12T00:00:13.322Z,29.05
2017-04-12T00:01:22.091Z,29.14
2017-04-12T00:02:31.469Z,28.85
2017-04-12T00:03:40.842Z,28.66
2017-04-12T00:04:50.507Z,28.85
2017-04-12T00:05:59.282Z,28.47
2017-04-12T00:07:08.099Z,28.95
2017-04-12T00:08:16.861Z,29.03
2017-04-12T00:09:25.629Z,29.05
2017-04-12T00:10:34.401Z,28.84
2017-04-12T00:11:43.139Z,29.14
2017-04-12T00:12:51.834Z,28.74
2017-04-12T00:14:01.163Z,29.13
2017-04-12T00:15:10.198Z,28.76
2017-04-12T00:16:19.228Z,28.94
2017-04-12T00:17:28.270Z,28.84
2017-04-12T00:18:37.627Z,28.85
2017-04-12T00:19:47.002Z,28.74
2017-04-12T00:20:56.345Z,28.74
2017-04-12T00:22:05.106Z,28.74
2017-04-12T00:23:14.187Z,28.74
2017-04-12T00:24:23.258Z,28.84
2017-04-12T00:25:32.632Z,28.94
2017-04-12T00:26:41.399Z,28.84
2017-04-12T00:27:50.156Z,28.94
2017-04-12T00:28:59.481Z,29.13
2017-04-12T00:30:09.073Z,28.94
2017-04-12T00:31:18.114Z,28.64
2017-04-12T00:32:27.200Z,28.74
2017-04-12T00:33:36.261Z,28.74
2017-04-12T00:34:45.950Z,29.03
2017-04-12T00:35:55.018Z,29.13
2017-04-12T00:37:04.058Z,29.03
2017-04-12T00:38:12.826Z,28.55
2017-04-12T00:39:21.894Z,28.94
2017-04-12T00:40:30.668Z,28.84
2017-04-12T00:41:39.765Z,28.94
2017-04-12T00:42:48.538Z,29.22
2017-04-12T00:43:57.613Z,29.03
2017-04-12T00:45:06.971Z,29.03
2017-04-12T00:46:15.987Z,29.22
2017-04-12T00:47:24.757Z,29.03
2017-04-12T00:48:33.800Z,28.84
2017-04-12T00:49:42.796Z,28.74
2017-04-12T00:50:52.414Z,28.94
2017-04-12T00:52:01.154Z,28.84
2017-04-12T00:53:09.853Z,28.64
2017-04-12T00:54:19.178Z,28.74
2017-04-12T00:55:28.551Z,29.22
2017-04-12T00:56:37.615Z,28.74
2017-04-12T00:57:46.988Z,28.84
2017-04-12T00:58:56.356Z,29.03
2017-04-12T01:00:05.400Z,28.74
2017-04-12T01:01:14.433Z,28.94
2017-04-12T01:02:23.201Z,28.84
2017-04-12T01:03:31.975Z,29.03
2017-04-12T01:04:41.025Z,28.94
2017-04-12T01:05:50.056Z,28.64
2017-04-12T01:06:59.099Z,28.84
2017-04-12T01:08:08.464Z,28.55
2017-04-12T01:09:17.840Z,28.64
2017-04-12T01:10:26.874Z,28.64
2017-04-12T01:11:35.609Z,28.45
2017-04-12T01:12:44.671Z,28.45
2017-04-12T01:13:53.749Z,28.64
2017-04-12T01:15:03.121Z,28.84
2017-04-12T01:16:12.165Z,28.64
2017-04-12T01:17:20.875Z,28.64
2017-04-12T01:18:30.247Z,28.84
2017-04-12T01:19:39.289Z,28.74
2017-04-12T01:20:48.616Z,28.55
2017-04-12T01:21:57.380Z,28.45
2017-04-12T01:23:06.448Z,28.64
2017-04-12T01:24:15.523Z,28.64
2017-04-12T01:25:24.264Z,28.64
2017-04-12T01:26:33.020Z,28.64
2017-04-12T01:27:42.078Z,28.55
2017-04-12T01:28:51.411Z,28.45
2017-04-12T01:30:00.172Z,28.55
2017-04-12T01:31:08.938Z,28.64
2017-04-12T01:32:17.717Z,28.84
2017-04-12T01:33:26.460Z,28.64
2017-04-12T01:34:35.193Z,28.64
2017-04-12T01:35:44.159Z,28.64
2017-04-12T01:36:52.920Z,28.74
2017-04-12T01:38:01.663Z,28.94
2017-04-12T01:39:10.694Z,28.64
2017-04-12T01:40:19.754Z,28.74
2017-04-12T01:41:28.540Z,28.45
2017-04-12T01:42:37.604Z,28.45
2017-04-12T01:43:46.673Z,28.64
2017-04-12T01:44:55.446Z,28.64
2017-04-12T01:46:04.220Z,28.55
2017-04-12T01:47:13.478Z,28.84
2017-04-12T01:48:22.554Z,28.64
2017-04-12T01:49:31.325Z,28.94
2017-04-12T01:50:40.702Z,28.74
2017-04-12T01:51:49.464Z,28.74
2017-04-12T01:52:58.230Z,28.74
2017-04-12T01:54:07.322Z,28.84
2017-04-12T01:55:16.385Z,28.84
2017-04-12T01:56:25.147Z,28.74
2017-04-12T01:57:34.214Z,28.64
2017-04-12T01:58:42.965Z,28.64
2017-04-12T01:59:51.721Z,28.74
2017-04-12T02:01:00.488Z,28.74
2017-04-12T02:02:09.870Z,28.55
2017-04-12T02:03:18.622Z,28.45
2017-04-12T02:04:27.699Z,28.55
2017-04-12T02:05:36.432Z,28.84
2017-04-12T02:06:45.462Z,28.64
2017-04-12T02:07:54.226Z,28.74
2017-04-12T02:09:03.289Z,28.74
2017-04-12T02:10:12.345Z,28.45
2017-04-12T02:11:21.378Z,28.55
2017-04-12T02:12:30.104Z,28.53
2017-04-12T02:13:38.871Z,28.53
2017-04-12T02:14:47.642Z,28.55
2017-04-12T02:15:56.443Z,28.63
2017-04-12T02:17:05.203Z,28.64
2017-04-12T02:18:13.964Z,28.63
2017-04-12T02:19:22.727Z,28.73
2017-04-12T02:20:31.765Z,28.55
2017-04-12T02:21:40.498Z,28.55
2017-04-12T02:22:49.558Z,28.55
2017-04-12T02:23:58.627Z,28.34
2017-04-12T02:25:08.002Z,28.64
2017-04-12T02:26:17.027Z,28.63
2017-04-12T02:27:25.792Z,28.55
2017-04-12T02:28:34.571Z,28.74
2017-04-12T02:29:43.926Z,28.63
2017-04-12T02:30:53.010Z,28.63
2017-04-12T02:32:02.389Z,28.74
2017-04-12T02:33:11.394Z,28.55
2017-04-12T02:34:20.995Z,28.44
2017-04-12T02:35:30.323Z,28.45
2017-04-12T02:36:39.360Z,28.84
2017-04-12T02:37:48.394Z,28.83
2017-04-12T02:38:57.137Z,28.73
2017-04-12T02:40:06.173Z,28.45
2017-04-12T02:41:15.247Z,28.55
2017-04-12T02:42:24.306Z,28.45
2017-04-12T02:43:33.072Z,28.45
2017-04-12T02:44:42.141Z,28.55
2017-04-12T02:45:51.204Z,28.44
2017-04-12T02:47:00.246Z,28.55
2017-04-12T02:48:09.154Z,28.74
2017-04-12T02:49:18.186Z,28.64
2017-04-12T02:50:27.213Z,28.63
2017-04-12T02:51:35.939Z,28.83
2017-04-12T02:52:45.021Z,28.44
2017-04-12T02:53:53.757Z,28.44
2017-04-12T02:55:02.517Z,28.73
2017-04-12T02:56:11.277Z,28.63
2017-04-12T02:57:20.649Z,28.53
2017-04-12T02:58:29.723Z,28.53
2017-04-12T02:59:38.769Z,28.73
2017-04-12T03:00:48.067Z,28.73
2017-04-12T03:01:57.097Z,28.73
2017-04-12T03:03:05.863Z,28.63
2017-04-12T03:04:15.238Z,28.53
2017-04-12T03:05:24.919Z,28.73
2017-04-12T03:06:33.697Z,28.63
2017-04-12T03:07:42.472Z,28.83
2017-04-12T03:08:52.158Z,28.83
2017-04-12T03:10:01.230Z,28.83
2017-04-12T03:11:09.998Z,28.45
2017-04-12T03:12:18.765Z,28.73
2017-04-12T03:13:27.834Z,28.63
2017-04-12T03:14:36.947Z,28.53
2017-04-12T03:15:46.332Z,28.63
2017-04-12T03:16:55.111Z,28.73
2017-04-12T03:18:04.185Z,28.53
2017-04-12T03:19:13.566Z,28.73
2017-04-12T03:20:22.337Z,28.73
2017-04-12T03:21:31.713Z,28.53
2017-04-12T03:22:40.477Z,28.63
2017-04-12T03:23:49.845Z,28.53
2017-04-12T03:24:59.231Z,28.83
2017-04-12T03:26:08.904Z,28.73
2017-04-12T03:27:17.980Z,28.63
2017-04-12T03:28:26.730Z,28.53
2017-04-12T03:29:36.068Z,28.83
2017-04-12T03:30:45.420Z,28.44
2017-04-12T03:31:54.149Z,28.73
2017-04-12T03:33:03.227Z,28.44
2017-04-12T03:34:12.345Z,28.63
2017-04-12T03:35:21.420Z,28.63
2017-04-12T03:36:30.192Z,28.53
2017-04-12T03:37:38.931Z,28.53
2017-04-12T03:38:47.707Z,28.83
2017-04-12T03:39:56.478Z,28.44
2017-04-12T03:41:05.253Z,28.63
2017-04-12T03:42:14.025Z,28.73
2017-04-12T03:43:23.402Z,28.53
2017-04-12T03:44:32.759Z,28.73
2017-04-12T03:45:41.484Z,28.73
2017-04-12T03:46:50.291Z,28.63
2017-04-12T03:47:59.942Z,28.63
2017-04-12T03:49:09.278Z,28.53
2017-04-12T03:50:18.353Z,28.63
2017-04-12T03:51:27.392Z,28.63
2017-04-12T03:52:36.734Z,28.73
2017-04-12T03:53:45.818Z,28.63
2017-04-12T03:54:55.814Z,28.53
2017-04-12T03:56:04.886Z,28.73
2017-04-12T03:57:14.254Z,28.73
2017-04-12T03:58:24.199Z,28.53
2017-04-12T03:59:33.593Z,28.83
2017-04-12T04:00:43.289Z,28.83
2017-04-12T04:01:52.674Z,28.53
2017-04-12T04:03:01.737Z,28.63
2017-04-12T04:04:11.573Z,28.53
2017-04-12T04:05:20.647Z,28.63
2017-04-12T04:06:29.374Z,28.34
2017-04-12T04:07:38.443Z,28.34
2017-04-12T04:08:47.515Z,28.44
2017-04-12T04:09:56.278Z,28.73
2017-04-12T04:11:05.021Z,28.53
2017-04-12T04:12:13.746Z,28.44
2017-04-12T04:13:23.134Z,28.73
2017-04-12T04:14:31.909Z,28.25
2017-04-12T04:15:40.669Z,28.34
2017-04-12T04:16:49.441Z,28.44
2017-04-12T04:17:58.514Z,28.44
2017-04-12T04:19:07.270Z,28.53
2017-04-12T04:20:16.035Z,28.84
2017-04-12T04:21:25.109Z,28.53
2017-04-12T04:22:33.872Z,28.53
2017-04-12T04:23:43.558Z,28.53
2017-04-12T04:24:52.335Z,28.53
2017-04-12T04:26:01.416Z,28.26
2017-04-12T04:27:10.187Z,28.25
2017-04-12T04:28:19.257Z,28.44
2017-04-12T04:29:28.304Z,28.36
2017-04-12T04:30:37.337Z,28.16
2017-04-12T04:31:46.105Z,28.36
2017-04-12T04:32:55.191Z,28.16
2017-04-12T04:34:04.244Z,28.36
2017-04-12T04:35:13.262Z,28.07
2017-04-12T04:36:22.337Z,28.16
2017-04-12T04:37:31.409Z,28.26
2017-04-12T04:38:40.218Z,28.26
2017-04-12T04:39:48.991Z,28.26
2017-04-12T04:40:58.009Z,28.26
2017-04-12T04:42:07.323Z,28.07
2017-04-12T04:43:16.047Z,27.97
2017-04-12T04:44:25.726Z,28.07
2017-04-12T04:45:35.103Z,28.16
2017-04-12T04:46:44.183Z,28.16
2017-04-12T04:47:53.563Z,28.55
2017-04-12T04:49:02.654Z,28.36
2017-04-12T04:50:11.735Z,28.16
2017-04-12T04:51:20.728Z,27.87
2017-04-12T04:52:30.068Z,28.26
2017-04-12T04:53:39.413Z,28.16
2017-04-12T04:54:48.141Z,28.26
2017-04-12T04:55:56.917Z,28.16
2017-04-12T04:57:05.676Z,28.36
2017-04-12T04:58:14.441Z,27.97
2017-04-12T04:59:23.501Z,28.36
2017-04-12T05:00:32.570Z,28.07
2017-04-12T05:01:41.652Z,27.97
2017-04-12T05:02:50.423Z,28.07
2017-04-12T05:03:59.500Z,28.36
2017-04-12T05:05:08.267Z,28.16
2017-04-12T05:06:17.036Z,28.16
2017-04-12T05:07:25.806Z,28.07
2017-04-12T05:08:34.577Z,27.87
2017-04-12T05:09:43.356Z,28.07
2017-04-12T05:10:52.423Z,27.87
2017-04-12T05:12:01.165Z,27.68
2017-04-12T05:13:09.904Z,27.68
2017-04-12T05:14:18.633Z,27.7
2017-04-12T05:15:27.675Z,27.68
2017-04-12T05:16:36.744Z,27.68
2017-04-12T05:17:45.474Z,27.7
2017-04-12T05:18:54.193Z,27.89
2017-04-12T05:20:02.959Z,27.8
2017-04-12T05:21:12.033Z,27.7
2017-04-12T05:22:21.106Z,27.89
2017-04-12T05:23:29.875Z,27.98
2017-04-12T05:24:38.941Z,27.89
2017-04-12T05:25:47.994Z,27.7
2017-04-12T05:26:57.331Z,27.89
2017-04-12T05:28:06.116Z,27.7
2017-04-12T05:29:15.798Z,27.7
2017-04-12T05:30:24.874Z,27.7
2017-04-12T05:31:33.619Z,27.5
2017-04-12T05:32:42.653Z,27.6
2017-04-12T05:33:51.728Z,27.7
2017-04-12T05:35:01.085Z,27.4
2017-04-12T05:36:09.831Z,27.6
2017-04-12T05:37:18.901Z,27.6
2017-04-12T05:38:27.669Z,27.5
2017-04-12T05:39:36.437Z,27.5
2017-04-12T05:40:45.811Z,27.4
2017-04-12T05:41:54.891Z,27.4
2017-04-12T05:43:03.965Z,27.5
2017-04-12T05:44:13.043Z,27.31
2017-04-12T05:45:22.112Z,27.4
2017-04-12T05:46:31.165Z,27.4
2017-04-12T05:47:40.204Z,27.4
2017-04-12T05:48:49.884Z,27.4
2017-04-12T05:49:58.648Z,27.31
2017-04-12T05:51:07.401Z,27.4
2017-04-12T05:52:16.174Z,27.22
2017-04-12T05:53:24.935Z,27.22
2017-04-12T05:54:34.383Z,27.31
2017-04-12T05:55:43.153Z,27.31
2017-04-12T05:56:51.927Z,27.31
2017-04-12T05:58:00.982Z,27.22
2017-04-12T05:59:10.021Z,27.5
2017-04-12T06:00:19.601Z,27.5
2017-04-12T06:01:28.363Z,27.31
2017-04-12T06:02:37.131Z,27.22
2017-04-12T06:03:45.871Z,26.92
2017-04-12T06:04:54.605Z,27.22
2017-04-12T06:06:03.366Z,26.82
2017-04-12T06:07:12.130Z,27.12
2017-04-12T06:08:21.200Z,27.12
2017-04-12T06:09:30.272Z,27.03
2017-04-12T06:10:39.024Z,26.92
2017-04-12T06:11:48.106Z,27.12
2017-04-12T06:12:56.879Z,26.92
2017-04-12T06:14:06.569Z,27.12
2017-04-12T06:15:15.650Z,26.93
2017-04-12T06:16:24.429Z,26.84
2017-04-12T06:17:33.489Z,27.12
2017-04-12T06:18:42.858Z,26.84
2017-04-12T06:19:51.942Z,26.84
2017-04-12T06:21:01.318Z,26.84
2017-04-12T06:22:10.394Z,26.93
2017-04-12T06:23:19.461Z,26.73
2017-04-12T06:24:28.533Z,26.65
2017-04-12T06:25:37.609Z,26.65
2017-04-12T06:26:46.684Z,26.55
2017-04-12T06:27:55.423Z,26.84
2017-04-12T06:29:04.156Z,26.26
2017-04-12T06:30:12.927Z,26.55
2017-04-12T06:31:21.996Z,26.84
2017-04-12T06:32:30.765Z,26.75
2017-04-12T06:33:39.845Z,26.93
2017-04-12T06:34:49.205Z,26.75
2017-04-12T06:35:58.253Z,26.45
2017-04-12T06:37:07.579Z,26.45
2017-04-12T06:38:16.336Z,26.65
2017-04-12T06:39:25.663Z,26.55
2017-04-12T06:40:34.428Z,26.26
2017-04-12T06:41:43.507Z,26.35
2017-04-12T06:42:53.225Z,26.75
2017-04-12T06:44:02.616Z,26.07
2017-04-12T06:45:11.388Z,26.26
2017-04-12T06:46:20.462Z,26.75
2017-04-12T06:47:29.229Z,26.07
2017-04-12T06:48:38.639Z,25.97
2017-04-12T06:49:48.324Z,26.35
2017-04-12T06:50:57.090Z,26.45
2017-04-12T06:52:06.478Z,26.17
2017-04-12T06:53:15.537Z,26.45
2017-04-12T06:54:24.233Z,26.45
2017-04-12T06:55:32.964Z,26.35
2017-04-12T06:56:42.044Z,26.07
2017-04-12T06:57:50.819Z,26.28
2017-04-12T06:58:59.904Z,26.35
2017-04-12T07:00:08.973Z,25.89
2017-04-12T07:01:18.057Z,26.07
2017-04-12T07:02:26.832Z,25.98
2017-04-12T07:03:35.880Z,25.97
2017-04-12T07:04:45.229Z,25.79
2017-04-12T07:05:54.614Z,25.89
2017-04-12T07:07:03.359Z,25.98
2017-04-12T07:08:12.398Z,26.08
2017-04-12T07:09:21.219Z,26.37
2017-04-12T07:10:30.291Z,25.4
2017-04-12T07:11:39.067Z,26.37
2017-04-12T07:12:47.840Z,25.79
2017-04-12T07:13:56.578Z,25.5
2017-04-12T07:15:05.292Z,25.98
2017-04-12T07:16:14.077Z,25.89
2017-04-12T07:17:22.849Z,25.4
2017-04-12T07:18:31.623Z,25.7
2017-04-12T07:19:41.305Z,25.31
2017-04-12T07:20:50.373Z,25.6
2017-04-12T07:21:59.446Z,25.7
2017-04-12T07:23:08.525Z,25.21
2017-04-12T07:24:17.274Z,25.31
2017-04-12T07:25:26.309Z,25.02
2017-04-12T07:26:35.066Z,25.12
2017-04-12T07:27:43.837Z,25.4
2017-04-12T07:28:52.911Z,25.02
2017-04-12T07:30:01.685Z,25.21
2017-04-12T07:31:11.063Z,24.73
2017-04-12T07:32:20.138Z,24.93
2017-04-12T07:33:28.916Z,25.03
2017-04-12T07:34:38.621Z,24.74
2017-04-12T07:35:47.346Z,24.65
2017-04-12T07:36:56.090Z,25.03
2017-04-12T07:38:04.822Z,24.55
2017-04-12T07:39:13.591Z,25.13
2017-04-12T07:40:22.363Z,24.93
2017-04-12T07:41:31.147Z,25.23
2017-04-12T07:42:39.879Z,24.55
2017-04-12T07:43:49.223Z,25.32
2017-04-12T07:44:58.779Z,24.84
2017-04-12T07:46:07.836Z,24.84
2017-04-12T07:47:16.614Z,24.55
2017-04-12T07:48:25.687Z,24.84
2017-04-12T07:49:34.426Z,24.65
2017-04-12T07:50:43.459Z,25.13
2017-04-12T07:51:52.225Z,25.03
2017-04-12T07:53:01.296Z,24.74
2017-04-12T07:54:10.073Z,24.65
2017-04-12T07:55:18.835Z,24.55
2017-04-12T07:56:27.605Z,24.56
2017-04-12T07:57:36.872Z,24.46
2017-04-12T07:58:45.647Z,24.35
2017-04-12T07:59:55.036Z,24.27
2017-04-12T08:01:04.097Z,23.98
2017-04-12T08:02:12.822Z,23.88
2017-04-12T08:03:21.899Z,24.17
2017-04-12T08:04:30.663Z,24.17
2017-04-12T08:05:39.441Z,24.17
2017-04-12T08:06:48.192Z,24.17
2017-04-12T08:07:57.427Z,24.27
2017-04-12T08:09:06.236Z,24.17
2017-04-12T08:10:15.280Z,23.88
2017-04-12T08:11:23.993Z,23.69
2017-04-12T08:12:33.616Z,23.79
2017-04-12T08:13:42.392Z,23.88
2017-04-12T08:14:51.173Z,23.79
2017-04-12T08:15:59.879Z,23.6
2017-04-12T08:17:08.635Z,23.8
2017-04-12T08:18:17.703Z,23.9
2017-04-12T08:19:26.514Z,23.79
2017-04-12T08:20:35.289Z,23.8
2017-04-12T08:21:44.034Z,23.7
2017-04-12T08:22:53.363Z,23.7
2017-04-12T08:24:02.134Z,23.69
2017-04-12T08:25:11.213Z,23.41
2017-04-12T08:26:19.986Z,23.9
2017-04-12T08:27:29.069Z,23.7
2017-04-12T08:28:37.828Z,23.69
2017-04-12T08:29:46.593Z,23.69
2017-04-12T08:30:55.678Z,23.88
2017-04-12T08:32:04.450Z,23.98
2017-04-12T08:33:13.193Z,24.27
2017-04-12T08:34:22.262Z,24.08
2017-04-12T08:35:31.033Z,23.5
2017-04-12T08:36:39.798Z,23.69
2017-04-12T08:37:48.581Z,23.7
2017-04-12T08:38:57.649Z,23.7
2017-04-12T08:40:06.734Z,23.8
2017-04-12T08:41:15.816Z,23.9
2017-04-12T08:42:24.593Z,23.8
2017-04-12T08:43:33.363Z,23.4
2017-04-12T08:44:42.337Z,23.5
2017-04-12T08:45:51.125Z,23.7
2017-04-12T08:47:00.200Z,23.7
2017-04-12T08:48:08.975Z,23.41
2017-04-12T08:49:17.741Z,23.32
2017-04-12T08:50:27.091Z,23.41
2017-04-12T08:51:35.817Z,23.5
2017-04-12T08:52:44.889Z,23.8
2017-04-12T08:53:53.960Z,23.6
2017-04-12T08:55:03.214Z,23.8
2017-04-12T08:56:11.941Z,23.41
2017-04-12T08:57:21.033Z,23.5
2017-04-12T08:58:29.809Z,23.8
2017-04-12T08:59:38.554Z,23.8
2017-04-12T09:00:47.586Z,23.79
2017-04-12T09:01:56.395Z,23.88
2017-04-12T09:03:05.158Z,23.79
2017-04-12T09:04:14.482Z,24.08
2017-04-12T09:05:23.216Z,23.98
2017-04-12T09:06:31.989Z,24.08
2017-04-12T09:07:40.750Z,23.79
2017-04-12T09:08:49.517Z,24.27
2017-04-12T09:09:58.276Z,24.08
2017-04-12T09:11:07.256Z,23.98
2017-04-12T09:12:16.020Z,23.98
2017-04-12T09:13:24.783Z,24.27
2017-04-12T09:14:33.563Z,24.37
2017-04-12T09:15:42.534Z,24.37
2017-04-12T09:16:51.311Z,24.46
2017-04-12T09:18:00.389Z,24.46
2017-04-12T09:19:09.166Z,24.17
2017-04-12T09:20:18.265Z,24.37
2017-04-12T09:21:27.901Z,24.27
2017-04-12T09:22:36.677Z,24.37
2017-04-12T09:23:45.429Z,24.17
2017-04-12T09:24:55.121Z,24.37
2017-04-12T09:26:04.480Z,24.46
2017-04-12T09:27:13.212Z,23.88
2017-04-12T09:28:22.789Z,24.08
2017-04-12T09:29:31.827Z,23.79
2017-04-12T09:30:40.595Z,24.17
2017-04-12T09:31:49.371Z,23.5
2017-04-12T09:32:58.144Z,23.5
2017-04-12T09:34:06.913Z,24.18
2017-04-12T09:35:15.690Z,24.09
2017-04-12T09:36:24.467Z,24.17
2017-04-12T09:37:33.225Z,24.08
2017-04-12T09:38:42.307Z,24.08
2017-04-12T09:39:51.392Z,24.27
2017-04-12T09:41:00.159Z,24.08
2017-04-12T09:42:08.928Z,23.98
2017-04-12T09:43:18.008Z,24.27
2017-04-12T09:44:26.774Z,24.17
2017-04-12T09:45:35.559Z,24.17
2017-04-12T09:46:44.311Z,24.17
2017-04-12T09:47:53.352Z,24.27
2017-04-12T09:49:02.424Z,24.37
2017-04-12T09:50:11.191Z,24.37
2017-04-12T09:51:20.271Z,24.56
2017-04-12T09:52:29.015Z,24.56
2017-04-12T09:53:37.722Z,24.37
2017-04-12T09:54:46.426Z,24.37
2017-04-12T09:55:55.155Z,24.37
2017-04-12T09:57:04.430Z,24.46
2017-04-12T09:58:13.205Z,24.46
2017-04-12T09:59:21.970Z,24.08
2017-04-12T10:00:30.743Z,24.56
2017-04-12T10:01:39.517Z,24.17
2017-04-12T10:02:48.598Z,24.66
2017-04-12T10:03:57.988Z,24.66
2017-04-12T10:05:07.072Z,24.37
2017-04-12T10:06:16.440Z,24.37
2017-04-12T10:07:25.777Z,24.17
2017-04-12T10:08:34.827Z,24.08
2017-04-12T10:09:43.553Z,24.37
2017-04-12T10:10:52.297Z,24.17
2017-04-12T10:12:01.029Z,24.37
2017-04-12T10:13:09.798Z,24.08
2017-04-12T10:14:18.853Z,24.37
2017-04-12T10:15:27.622Z,24.37
2017-04-12T10:16:36.389Z,24.08
2017-04-12T10:17:45.460Z,24.08
2017-04-12T10:18:54.508Z,24.17
2017-04-12T10:20:03.537Z,24.17
2017-04-12T10:21:12.294Z,23.79
2017-04-12T10:22:21.247Z,24.17
2017-04-12T10:23:29.974Z,23.88
2017-04-12T10:24:38.743Z,24.08
2017-04-12T10:25:47.511Z,24.08
2017-04-12T10:26:56.259Z,23.6
2017-04-12T10:28:04.973Z,24.27
2017-04-12T10:29:13.709Z,24.27
2017-04-12T10:30:22.431Z,23.69
2017-04-12T10:31:31.209Z,24.18
2017-04-12T10:32:39.979Z,23.9
2017-04-12T10:33:49.052Z,23.99
2017-04-12T10:34:57.796Z,23.88
2017-04-12T10:36:06.501Z,24.09
2017-04-12T10:37:15.544Z,23.6
2017-04-12T10:38:24.372Z,23.5
2017-04-12T10:39:33.123Z,23.99
2017-04-12T10:40:41.848Z,23.7
2017-04-12T10:41:50.627Z,23.88
2017-04-12T10:42:59.393Z,24.17
2017-04-12T10:44:08.463Z,24.18
2017-04-12T10:45:18.021Z,23.98
2017-04-12T10:46:26.745Z,23.98
2017-04-12T10:47:35.514Z,24.27
2017-04-12T10:48:44.470Z,23.88
2017-04-12T10:49:53.222Z,24.27
2017-04-12T10:51:01.946Z,24.27
2017-04-12T10:52:11.024Z,24.17
2017-04-12T10:53:20.067Z,24.08
2017-04-12T10:54:28.783Z,24.46
2017-04-12T10:55:37.556Z,24.46
2017-04-12T10:56:46.324Z,24.46
2017-04-12T10:57:55.090Z,24.37
2017-04-12T10:59:04.163Z,24.37
2017-04-12T11:00:12.936Z,24.56
2017-04-12T11:01:21.705Z,24.46
2017-04-12T11:02:30.482Z,24.56
2017-04-12T11:03:39.245Z,24.56
2017-04-12T11:04:48.627Z,24.46
2017-04-12T11:05:57.712Z,24.37
2017-04-12T11:07:06.478Z,24.46
2017-04-12T11:08:15.258Z,24.27
2017-04-12T11:09:24.230Z,24.37
2017-04-12T11:10:33.302Z,24.56
2017-04-12T11:11:42.377Z,24.17
2017-04-12T11:12:51.137Z,24.46
2017-04-12T11:13:59.903Z,24.37
2017-04-12T11:15:08.952Z,24.27
2017-04-12T11:16:17.964Z,24.27
2017-04-12T11:17:26.693Z,24.37
2017-04-12T11:18:35.746Z,24.37
2017-04-12T11:19:44.974Z,24.37
2017-04-12T11:20:54.021Z,24.27
2017-04-12T11:22:02.782Z,24.37
2017-04-12T11:23:11.555Z,24.17
2017-04-12T11:24:20.658Z,24.27
2017-04-12T11:25:29.432Z,24.37
2017-04-12T11:26:38.537Z,24.08
2017-04-12T11:27:47.616Z,23.98
2017-04-12T11:28:56.377Z,24.27
2017-04-12T11:30:05.460Z,23.88
2017-04-12T11:31:14.230Z,24.27
2017-04-12T11:32:23.019Z,24.08
2017-04-12T11:33:31.787Z,24.27
2017-04-12T11:34:41.174Z,23.88
2017-04-12T11:35:49.944Z,24.08
2017-04-12T11:36:58.699Z,24.27
2017-04-12T11:38:07.429Z,23.98
2017-04-12T11:39:16.202Z,23.98
2017-04-12T11:40:24.974Z,23.88
2017-04-12T11:41:33.730Z,24.08
2017-04-12T11:42:42.475Z,23.98
2017-04-12T11:43:51.202Z,24.27
2017-04-12T11:44:59.966Z,24.27
2017-04-12T11:46:09.306Z,23.98
2017-04-12T11:47:18.044Z,24.27
2017-04-12T11:48:27.122Z,24.37
2017-04-12T11:49:35.886Z,24.27
2017-04-12T11:50:44.820Z,24.27
2017-04-12T11:51:53.554Z,24.56
2017-04-12T11:53:02.319Z,24.37
2017-04-12T11:54:11.977Z,24.37
2017-04-12T11:55:21.045Z,24.17
2017-04-12T11:56:29.790Z,24.37
2017-04-12T11:57:38.500Z,24.46
2017-04-12T11:58:47.217Z,24.17
2017-04-12T11:59:56.298Z,24.76
2017-04-12T12:01:05.086Z,24.27
2017-04-12T12:02:14.508Z,24.17
2017-04-12T12:03:23.593Z,24.27
2017-04-12T12:04:32.358Z,24.46
2017-04-12T12:05:41.128Z,24.56
2017-04-12T12:06:50.201Z,24.66
2017-04-12T12:07:58.979Z,24.76
2017-04-12T12:09:07.720Z,24.37
2017-04-12T12:10:16.791Z,24.37
2017-04-12T12:11:25.785Z,24.76
2017-04-12T12:12:34.532Z,24.37
2017-04-12T12:13:43.564Z,24.66
2017-04-12T12:14:52.338Z,24.66
2017-04-12T12:16:01.127Z,24.76
2017-04-12T12:17:09.897Z,24.76
2017-04-12T12:18:18.973Z,24.85
2017-04-12T12:19:28.059Z,24.76
2017-04-12T12:20:36.835Z,24.85
2017-04-12T12:21:45.935Z,24.85
2017-04-12T12:22:55.306Z,25.13
2017-04-12T12:24:04.086Z,25.04
2017-04-12T12:25:12.867Z,24.37
2017-04-12T12:26:21.613Z,24.65
2017-04-12T12:27:30.371Z,25.03
2017-04-12T12:28:39.142Z,24.85
2017-04-12T12:29:47.907Z,24.85
2017-04-12T12:30:56.643Z,25.14
2017-04-12T12:32:05.375Z,24.76
2017-04-12T12:33:14.442Z,24.93
2017-04-12T12:34:23.520Z,24.55
2017-04-12T12:35:32.287Z,24.95
2017-04-12T12:36:41.061Z,24.74
2017-04-12T12:37:49.835Z,25.03
2017-04-12T12:38:58.640Z,25.14
2017-04-12T12:40:07.417Z,24.93
2017-04-12T12:41:16.731Z,24.85
2017-04-12T12:42:25.508Z,24.66
2017-04-12T12:43:34.279Z,24.27
2017-04-12T12:44:43.045Z,24.37
2017-04-12T12:45:51.803Z,24.76
2017-04-12T12:47:00.568Z,24.76
2017-04-12T12:48:09.321Z,24.37
2017-04-12T12:49:18.092Z,24.37
2017-04-12T12:50:27.182Z,24.66
2017-04-12T12:51:35.971Z,24.85
2017-04-12T12:52:45.058Z,24.56
2017-04-12T12:53:54.153Z,24.56
2017-04-12T12:55:03.204Z,24.66
2017-04-12T12:56:12.187Z,24.56
2017-04-12T12:57:21.266Z,24.46
2017-04-12T12:58:30.307Z,24.46
2017-04-12T12:59:39.033Z,24.56
2017-04-12T13:00:47.799Z,24.46
2017-04-12T13:01:56.576Z,24.08
2017-04-12T13:03:05.349Z,24.56
2017-04-12T13:04:15.058Z,24.37
2017-04-12T13:05:23.829Z,24.37
2017-04-12T13:06:32.586Z,24.46
2017-04-12T13:07:41.291Z,24.37
2017-04-12T13:08:49.991Z,24.76
2017-04-12T13:09:58.720Z,24.66
2017-04-12T13:11:07.490Z,24.56
2017-04-12T13:12:16.270Z,24.56
2017-04-12T13:13:25.014Z,24.27
2017-04-12T13:14:33.711Z,24.66
2017-04-12T13:15:42.448Z,24.37
2017-04-12T13:16:51.214Z,24.46
2017-04-12T13:17:59.994Z,24.27
2017-04-12T13:19:08.754Z,24.17
2017-04-12T13:20:17.526Z,24.27
2017-04-12T13:21:26.609Z,24.46
2017-04-12T13:22:35.376Z,24.37
2017-04-12T13:23:44.156Z,24.56
2017-04-12T13:24:52.932Z,23.98
2017-04-12T13:26:01.709Z,24.17
2017-04-12T13:27:10.457Z,24.27
2017-04-12T13:28:19.189Z,24.27
2017-04-12T13:29:27.982Z,24.17
2017-04-12T13:30:36.702Z,23.98
2017-04-12T13:31:45.749Z,23.98
2017-04-12T13:32:54.775Z,24.27
2017-04-12T13:34:03.820Z,24.17
2017-04-12T13:35:12.748Z,23.88
2017-04-12T13:36:21.525Z,24.08
2017-04-12T13:37:30.602Z,24.18
2017-04-12T13:38:39.413Z,24.17
2017-04-12T13:39:48.540Z,24.09
2017-04-12T13:40:57.275Z,24.18
2017-04-12T13:42:06.349Z,24.18
2017-04-12T13:43:15.114Z,24.18
2017-04-12T13:44:23.885Z,24.09
2017-04-12T13:45:32.936Z,24.28
2017-04-12T13:46:41.678Z,23.9
2017-04-12T13:47:50.715Z,24.18
2017-04-12T13:48:59.746Z,23.99
2017-04-12T13:50:08.567Z,23.7
2017-04-12T13:51:17.344Z,23.9
2017-04-12T13:52:26.101Z,23.7
2017-04-12T13:53:35.170Z,23.9
2017-04-12T13:54:43.939Z,23.99
2017-04-12T13:55:52.707Z,23.8
2017-04-12T13:57:01.475Z,23.99
2017-04-12T13:58:10.296Z,23.8
2017-04-12T13:59:19.374Z,24.09
2017-04-12T14:00:28.148Z,23.5
2017-04-12T14:01:36.912Z,23.8
2017-04-12T14:02:45.678Z,23.99
2017-04-12T14:03:55.019Z,23.8
2017-04-12T14:05:03.747Z,23.7
2017-04-12T14:06:12.820Z,23.9
2017-04-12T14:07:22.191Z,23.8
2017-04-12T14:08:30.956Z,24.28
2017-04-12T14:09:40.342Z,23.5
2017-04-12T14:10:49.105Z,23.99
2017-04-12T14:11:57.868Z,24.28
2017-04-12T14:13:06.620Z,24.09
2017-04-12T14:14:15.338Z,23.9
2017-04-12T14:15:24.110Z,24.18
2017-04-12T14:16:33.491Z,23.9
2017-04-12T14:17:42.234Z,24.48
2017-04-12T14:18:50.962Z,23.99
2017-04-12T14:19:59.738Z,24.27
2017-04-12T14:21:08.813Z,24.38
2017-04-12T14:22:17.886Z,24.37
2017-04-12T14:23:26.638Z,24.37
2017-04-12T14:24:35.371Z,24.37
2017-04-12T14:25:44.132Z,24.37
2017-04-12T14:26:52.895Z,24.37
2017-04-12T14:28:02.276Z,24.66
2017-04-12T14:29:11.355Z,24.46
2017-04-12T14:30:20.402Z,24.76
2017-04-12T14:31:29.139Z,24.27
2017-04-12T14:32:38.189Z,24.37
2017-04-12T14:33:46.908Z,24.37
2017-04-12T14:34:55.661Z,24.37
2017-04-12T14:36:04.464Z,24.08
2017-04-12T14:37:13.528Z,24.27
2017-04-12T14:38:22.302Z,23.88
2017-04-12T14:39:31.034Z,24.27
2017-04-12T14:40:40.066Z,24.17
2017-04-12T14:41:49.138Z,23.98
2017-04-12T14:42:57.909Z,24.46
2017-04-12T14:44:06.994Z,24.17
2017-04-12T14:45:15.732Z,24.27
2017-04-12T14:46:25.069Z,24.56
2017-04-12T14:47:33.840Z,24.56
2017-04-12T14:48:42.606Z,24.17
2017-04-12T14:49:51.679Z,24.27
2017-04-12T14:51:00.417Z,24.76